Time;durP1;ratioP1;P1;durP2;ratioP2;P2;SDS_P1;SDS_P2;PMS_P1;PMS_P2;Temp;Humidity;BMP_temperature;BMP_pressure;BME280_temperature;BME280_humidity;BME280_pressure;Samples;Min_cycle;Max_cycle;Signal;HPM_P1;HPM_P2
2022/03/24 00:01:49;;;;;;;38.67;13.90;;;;;;;;;;5038723;28;20225;-77
2022/03/24 00:04:16;;;;;;;32.30;13.57;;;;;;;;;;5043018;28;20758;-78
2022/03/24 00:06:43;;;;;;;28.83;13.33;;;;;;;;;;5038900;28;20217;-79
2022/03/24 00:09:11;;;;;;;29.93;12.77;;;;;;;;;;5036751;28;20590;-78
2022/03/24 00:11:40;;;;;;;29.83;12.40;;;;;;;;;;5042511;28;20600;-79
2022/03/24 00:14:10;;;;;;;28.90;12.37;;;;;;;;;;5042351;28;20314;-78
2022/03/24 00:16:37;;;;;;;29.07;13.07;;;;;;;;;;5039798;28;20738;-78
2022/03/24 00:19:05;;;;;;;37.63;14.40;;;;;;;;;;5037780;28;20509;-78
2022/03/24 00:21:32;;;;;;;34.13;12.90;;;;;;;;;;5039774;28;20203;-78
2022/03/24 00:23:59;;;;;;;33.07;13.63;;;;;;;;;;5042224;28;20207;-78
2022/03/24 00:26:26;;;;;;;31.20;13.00;;;;;;;;;;5043603;28;20223;-79
2022/03/24 00:28:54;;;;;;;37.03;13.37;;;;;;;;;;5044769;28;20754;-79
2022/03/24 00:31:25;;;;;;;34.47;12.27;;;;;;;;;;5043115;28;20289;-79
2022/03/24 00:33:55;;;;;;;35.07;12.87;;;;;;;;;;5042945;28;20294;-79
2022/03/24 00:36:22;;;;;;;29.20;13.13;;;;;;;;;;5041640;28;20203;-79
2022/03/24 00:38:52;;;;;;;31.90;12.63;;;;;;;;;;5041232;28;20716;-79
2022/03/24 00:41:19;;;;;;;31.90;13.73;;;;;;;;;;5044591;28;20202;-79
2022/03/24 00:43:48;;;;;;;33.60;13.20;;;;;;;;;;5038433;28;20299;-79
2022/03/24 00:46:15;;;;;;;38.53;13.07;;;;;;;;;;5037926;28;20202;-79
2022/03/24 00:48:43;;;;;;;38.57;14.23;;;;;;;;;;5044347;28;20234;-79
2022/03/24 00:51:11;;;;;;;28.33;12.40;;;;;;;;;;5054645;22;20221;-76
2022/03/24 00:53:38;;;;;;;37.60;13.87;;;;;;;;;;5019339;28;20291;-76
2022/03/24 00:56:05;;;;;;;31.07;13.13;;;;;;;;;;5025139;28;20639;-76
2022/03/24 00:58:32;;;;;;;32.10;13.03;;;;;;;;;;5019777;28;20235;-77
2022/03/24 01:01:02;;;;;;;32.03;13.47;;;;;;;;;;5020289;28;20212;-76
2022/03/24 01:03:29;;;;;;;38.43;13.60;;;;;;;;;;5021794;28;20316;-76
2022/03/24 01:05:58;;;;;;;36.27;13.07;;;;;;;;;;5023166;28;20222;-75
2022/03/24 01:08:25;;;;;;;33.10;13.10;;;;;;;;;;5021734;28;20306;-76
2022/03/24 01:10:55;;;;;;;32.63;12.80;;;;;;;;;;5024242;28;20203;-76
2022/03/24 01:13:22;;;;;;;28.97;13.07;;;;;;;;;;5022851;28;20262;-78
2022/03/24 01:15:49;;;;;;;34.03;12.93;;;;;;;;;;5023204;28;20203;-75
2022/03/24 01:18:20;;;;;;;33.07;14.13;;;;;;;;;;5028095;28;20219;-76
2022/03/24 01:20:48;;;;;;;32.10;13.47;;;;;;;;;;5022699;28;20212;-76
2022/03/24 01:23:17;;;;;;;36.53;13.77;;;;;;;;;;5023642;28;20206;-76
2022/03/24 01:25:44;;;;;;;32.70;13.63;;;;;;;;;;5026947;28;20287;-76
2022/03/24 01:28:13;;;;;;;30.57;13.10;;;;;;;;;;5027023;28;20195;-76
2022/03/24 01:30:40;;;;;;;33.87;14.17;;;;;;;;;;5026236;28;22144;-76
2022/03/24 01:33:08;;;;;;;31.83;13.10;;;;;;;;;;5023817;28;20266;-78
2022/03/24 01:35:35;;;;;;;32.10;13.23;;;;;;;;;;5018660;28;20204;-77
2022/03/24 01:38:03;;;;;;;32.43;13.53;;;;;;;;;;5024210;28;20276;-77
2022/03/24 01:40:31;;;;;;;34.77;12.63;;;;;;;;;;5023621;28;20318;-76
2022/03/24 01:42:58;;;;;;;30.23;12.63;;;;;;;;;;5028196;28;20204;-76
2022/03/24 01:45:26;;;;;;;29.90;12.60;;;;;;;;;;5024618;28;20633;-76
2022/03/24 01:47:54;;;;;;;33.50;12.93;;;;;;;;;;5020040;28;20200;-76
2022/03/24 01:50:22;;;;;;;30.13;12.53;;;;;;;;;;5024240;28;20247;-79
2022/03/24 01:52:49;;;;;;;37.60;12.77;;;;;;;;;;5025359;28;20258;-77
2022/03/24 01:55:17;;;;;;;34.10;12.50;;;;;;;;;;5025909;28;20235;-76
2022/03/24 01:57:46;;;;;;;33.10;13.50;;;;;;;;;;5026021;28;20285;-78
2022/03/24 02:00:14;;;;;;;38.80;13.43;;;;;;;;;;5024969;28;20293;-78
2022/03/24 02:02:42;;;;;;;35.70;12.83;;;;;;;;;;5018892;28;20227;-76
2022/03/24 02:05:10;;;;;;;34.80;13.03;;;;;;;;;;5027596;28;20204;-79
2022/03/24 02:07:37;;;;;;;29.47;12.17;;;;;;;;;;5026589;28;20585;-79
2022/03/24 02:10:06;;;;;;;31.13;11.90;;;;;;;;;;5025859;28;20837;-76
2022/03/24 02:12:36;;;;;;;30.00;12.07;;;;;;;;;;5023710;28;20203;-80
2022/03/24 02:15:06;;;;;;;34.47;12.00;;;;;;;;;;5027148;28;20671;-78
2022/03/24 02:17:33;;;;;;;32.67;13.10;;;;;;;;;;5023750;28;20242;-77
2022/03/24 02:20:02;;;;;;;34.60;13.43;;;;;;;;;;5029952;28;20255;-77
2022/03/24 02:22:31;;;;;;;36.97;13.20;;;;;;;;;;5028896;28;20257;-76
2022/03/24 02:24:58;;;;;;;29.47;12.13;;;;;;;;;;5025951;28;20231;-78
2022/03/24 02:27:25;;;;;;;35.23;12.10;;;;;;;;;;5022174;28;20199;-77
2022/03/24 02:29:54;;;;;;;32.30;12.13;;;;;;;;;;5024940;28;20310;-77
2022/03/24 02:32:22;;;;;;;32.77;12.77;;;;;;;;;;5016902;28;20680;-78
2022/03/24 02:34:51;;;;;;;29.60;12.47;;;;;;;;;;5022939;28;20494;-80
2022/03/24 02:37:20;;;;;;;29.00;12.80;;;;;;;;;;5024021;28;20896;-77
2022/03/24 02:39:49;;;;;;;30.13;12.97;;;;;;;;;;5031569;28;20234;-77
2022/03/24 02:42:18;;;;;;;29.90;12.10;;;;;;;;;;5021013;28;20299;-78
2022/03/24 02:44:46;;;;;;;30.43;12.37;;;;;;;;;;5026426;28;20200;-77
2022/03/24 02:47:13;;;;;;;28.83;12.17;;;;;;;;;;5024786;28;20299;-78
2022/03/24 02:49:41;;;;;;;32.77;13.00;;;;;;;;;;5028085;28;20553;-78
2022/03/24 02:52:09;;;;;;;29.57;13.20;;;;;;;;;;5031892;28;20210;-76
2022/03/24 02:54:38;;;;;;;30.67;12.07;;;;;;;;;;5027998;28;20218;-77
2022/03/24 02:57:07;;;;;;;29.90;12.47;;;;;;;;;;5022783;28;20466;-77
2022/03/24 02:59:35;;;;;;;28.90;12.57;;;;;;;;;;5027265;28;20580;-76
2022/03/24 03:02:03;;;;;;;29.60;12.03;;;;;;;;;;5029311;28;20541;-77
2022/03/24 03:04:32;;;;;;;30.07;12.77;;;;;;;;;;5027658;28;20450;-77
2022/03/24 03:07:00;;;;;;;31.63;12.93;;;;;;;;;;5026932;28;20588;-79
2022/03/24 03:09:29;;;;;;;32.97;12.87;;;;;;;;;;5034977;28;20501;-78
2022/03/24 03:11:58;;;;;;;33.90;12.77;;;;;;;;;;5026650;28;20548;-77
2022/03/24 03:14:29;;;;;;;31.63;12.43;;;;;;;;;;5024919;28;20479;-77
2022/03/24 03:16:57;;;;;;;34.23;12.53;;;;;;;;;;5026602;28;20461;-76
2022/03/24 03:19:25;;;;;;;32.63;13.00;;;;;;;;;;5025750;28;20486;-77
2022/03/24 03:21:52;;;;;;;30.17;12.10;;;;;;;;;;5027374;28;20286;-78
2022/03/24 03:24:21;;;;;;;34.17;12.50;;;;;;;;;;5029559;28;20555;-77
2022/03/24 03:26:48;;;;;;;28.43;11.63;;;;;;;;;;5026316;28;20797;-77
2022/03/24 03:29:17;;;;;;;27.77;11.17;;;;;;;;;;5026305;28;20653;-81
2022/03/24 03:31:46;;;;;;;34.90;11.43;;;;;;;;;;5032069;28;20981;-77
2022/03/24 03:34:14;;;;;;;29.90;12.17;;;;;;;;;;5021739;28;20884;-77
2022/03/24 03:36:42;;;;;;;31.87;12.43;;;;;;;;;;5026316;28;20463;-77
2022/03/24 03:39:10;;;;;;;36.33;13.83;;;;;;;;;;5024864;28;20223;-78
2022/03/24 03:41:39;;;;;;;31.07;12.47;;;;;;;;;;5022945;28;20287;-80
2022/03/24 03:44:06;;;;;;;26.17;11.73;;;;;;;;;;5025546;28;20463;-77
2022/03/24 03:46:33;;;;;;;29.00;12.40;;;;;;;;;;5027743;28;20553;-77
2022/03/24 03:49:02;;;;;;;30.30;12.73;;;;;;;;;;5029103;28;20224;-79
2022/03/24 03:51:31;;;;;;;30.80;12.20;;;;;;;;;;5027020;28;20522;-76
2022/03/24 03:53:59;;;;;;;33.93;12.53;;;;;;;;;;5026751;28;21073;-81
2022/03/24 03:56:26;;;;;;;33.57;13.77;;;;;;;;;;5029382;28;20254;-77
2022/03/24 03:58:53;;;;;;;35.60;12.43;;;;;;;;;;5029286;28;20593;-77
2022/03/24 04:01:21;;;;;;;36.57;13.73;;;;;;;;;;5025163;28;20581;-76
2022/03/24 04:03:48;;;;;;;36.60;13.37;;;;;;;;;;5027640;28;20475;-78
2022/03/24 04:06:16;;;;;;;33.00;12.17;;;;;;;;;;5023121;28;20553;-79
2022/03/24 04:08:44;;;;;;;36.33;12.33;;;;;;;;;;5026081;28;20542;-78
2022/03/24 04:11:15;;;;;;;26.97;12.00;;;;;;;;;;5023285;28;20545;-78
2022/03/24 04:13:43;;;;;;;30.77;12.53;;;;;;;;;;5027959;28;20215;-77
2022/03/24 04:16:12;;;;;;;30.00;11.80;;;;;;;;;;5026983;28;20467;-77
2022/03/24 04:18:39;;;;;;;29.90;12.10;;;;;;;;;;5024000;28;20581;-76
2022/03/24 04:21:07;;;;;;;30.97;12.70;;;;;;;;;;5026664;28;20486;-77
2022/03/24 04:23:36;;;;;;;32.80;12.70;;;;;;;;;;5026125;28;20472;-77
2022/03/24 04:26:03;;;;;;;33.07;13.00;;;;;;;;;;5023269;28;20562;-77
2022/03/24 04:28:31;;;;;;;32.07;11.93;;;;;;;;;;5030637;28;20477;-76
2022/03/24 04:30:58;;;;;;;33.87;12.40;;;;;;;;;;5021887;28;20483;-77
2022/03/24 04:33:25;;;;;;;42.83;13.63;;;;;;;;;;5024652;28;20455;-75
2022/03/24 04:35:53;;;;;;;36.43;13.67;;;;;;;;;;5028789;28;20956;-77
2022/03/24 04:38:20;;;;;;;31.67;12.57;;;;;;;;;;5021951;28;20514;-77
2022/03/24 04:40:49;;;;;;;31.37;12.30;;;;;;;;;;5030026;28;20573;-76
2022/03/24 04:43:16;;;;;;;29.43;11.87;;;;;;;;;;5025023;28;20623;-79
2022/03/24 04:45:43;;;;;;;36.37;12.47;;;;;;;;;;5022140;28;20526;-76
2022/03/24 04:48:13;;;;;;;26.27;11.20;;;;;;;;;;5025552;28;20474;-77
2022/03/24 04:50:41;;;;;;;31.87;11.90;;;;;;;;;;5032936;28;20869;-77
2022/03/24 04:53:13;;;;;;;29.07;11.60;;;;;;;;;;5023996;28;20916;-77
2022/03/24 04:55:43;;;;;;;30.57;12.70;;;;;;;;;;5024552;28;20909;-77
2022/03/24 04:58:11;;;;;;;32.93;11.83;;;;;;;;;;5025787;28;20565;-79
2022/03/24 05:00:39;;;;;;;32.70;12.33;;;;;;;;;;5027185;28;20486;-79
2022/03/24 05:03:09;;;;;;;37.60;12.50;;;;;;;;;;5021828;28;20466;-79
2022/03/24 05:05:36;;;;;;;35.63;12.10;;;;;;;;;;5018344;28;20552;-76
2022/03/24 05:08:03;;;;;;;39.20;13.53;;;;;;;;;;5025462;28;20496;-78
2022/03/24 05:10:30;;;;;;;31.60;11.47;;;;;;;;;;5018659;28;20883;-76
2022/03/24 05:12:57;;;;;;;34.60;12.40;;;;;;;;;;5015600;28;20471;-76
2022/03/24 05:15:26;;;;;;;35.63;13.27;;;;;;;;;;5018541;28;20466;-75
2022/03/24 05:17:53;;;;;;;33.60;13.10;;;;;;;;;;5016484;28;20795;-77
2022/03/24 05:20:21;;;;;;;33.67;12.63;;;;;;;;;;5022199;28;20511;-76
2022/03/24 05:22:48;;;;;;;30.67;12.50;;;;;;;;;;5019341;28;20470;-76
2022/03/24 05:25:18;;;;;;;35.60;12.87;;;;;;;;;;5028127;28;20961;-77
2022/03/24 05:27:47;;;;;;;32.93;13.23;;;;;;;;;;5024089;28;20504;-77
2022/03/24 05:30:15;;;;;;;29.60;11.57;;;;;;;;;;5024066;28;21081;-76
2022/03/24 05:32:44;;;;;;;31.20;12.30;;;;;;;;;;5017303;28;20876;-76
2022/03/24 05:35:13;;;;;;;35.87;13.50;;;;;;;;;;5023544;28;20490;-76
2022/03/24 05:37:41;;;;;;;32.10;12.17;;;;;;;;;;5023199;28;20459;-76
2022/03/24 05:40:09;;;;;;;35.43;13.10;;;;;;;;;;5017494;28;20510;-76
2022/03/24 05:42:36;;;;;;;29.43;12.17;;;;;;;;;;5016718;28;20561;-76
2022/03/24 05:45:03;;;;;;;34.27;12.70;;;;;;;;;;5014921;28;20552;-76
2022/03/24 05:47:33;;;;;;;33.43;12.97;;;;;;;;;;5015567;28;20924;-76
2022/03/24 05:50:01;;;;;;;35.70;13.53;;;;;;;;;;5024798;28;20533;-76
2022/03/24 05:52:28;;;;;;;33.93;13.53;;;;;;;;;;5021394;28;20574;-78
2022/03/24 05:54:56;;;;;;;40.13;12.63;;;;;;;;;;5021741;28;20474;-76
2022/03/24 05:57:25;;;;;;;40.63;14.10;;;;;;;;;;5019435;28;20451;-76
2022/03/24 05:59:52;;;;;;;37.47;14.00;;;;;;;;;;5023218;28;20794;-76
2022/03/24 06:02:20;;;;;;;34.47;13.23;;;;;;;;;;5022491;28;20469;-76
2022/03/24 06:04:48;;;;;;;40.03;14.00;;;;;;;;;;5026113;28;20462;-76
2022/03/24 06:07:18;;;;;;;32.27;13.43;;;;;;;;;;5022629;28;20912;-76
2022/03/24 06:09:48;;;;;;;38.33;13.97;;;;;;;;;;5025151;28;20302;-76
2022/03/24 06:12:15;;;;;;;32.53;13.00;;;;;;;;;;5022616;28;20577;-77
2022/03/24 06:14:43;;;;;;;35.57;15.10;;;;;;;;;;5026640;28;20284;-76
2022/03/24 06:17:10;;;;;;;34.60;14.70;;;;;;;;;;5027879;28;20901;-76
2022/03/24 06:19:38;;;;;;;36.90;14.07;;;;;;;;;;5028323;28;20492;-77
2022/03/24 06:22:06;;;;;;;45.67;14.17;;;;;;;;;;5016712;28;20404;-77
2022/03/24 06:24:35;;;;;;;36.13;14.23;;;;;;;;;;5025490;28;20219;-76
2022/03/24 06:27:02;;;;;;;37.07;14.07;;;;;;;;;;5026996;28;20199;-77
2022/03/24 06:29:29;;;;;;;36.47;14.17;;;;;;;;;;5027447;28;20238;-76
2022/03/24 06:31:59;;;;;;;33.87;13.97;;;;;;;;;;5024470;28;20222;-77
2022/03/24 06:34:27;;;;;;;33.53;13.73;;;;;;;;;;5018705;28;20860;-77
2022/03/24 06:36:55;;;;;;;32.20;13.87;;;;;;;;;;5020867;28;20246;-76
2022/03/24 06:39:22;;;;;;;32.03;14.43;;;;;;;;;;5018996;28;20709;-77
2022/03/24 06:41:50;;;;;;;29.53;13.60;;;;;;;;;;5018021;28;20574;-77
2022/03/24 06:44:19;;;;;;;35.27;14.87;;;;;;;;;;5016889;28;20214;-77
2022/03/24 06:46:46;;;;;;;42.07;15.80;;;;;;;;;;5018100;28;20211;-78
2022/03/24 06:49:15;;;;;;;34.17;15.63;;;;;;;;;;5027193;28;20314;-77
2022/03/24 06:51:42;;;;;;;37.50;15.80;;;;;;;;;;5069624;22;20737;-80
2022/03/24 06:54:10;;;;;;;41.77;16.60;;;;;;;;;;5062033;28;20301;-80
2022/03/24 06:56:37;;;;;;;38.33;15.90;;;;;;;;;;5062375;28;20196;-79
2022/03/24 06:59:06;;;;;;;37.47;15.67;;;;;;;;;;5056028;28;20219;-80
2022/03/24 07:01:33;;;;;;;32.97;14.87;;;;;;;;;;5047127;28;20321;-80
2022/03/24 07:04:01;;;;;;;33.93;14.77;;;;;;;;;;5046519;28;20294;-80
2022/03/24 07:06:28;;;;;;;29.00;14.33;;;;;;;;;;5044461;28;20230;-79
2022/03/24 07:08:55;;;;;;;29.63;15.03;;;;;;;;;;5047361;28;20300;-80
2022/03/24 07:11:22;;;;;;;35.73;14.97;;;;;;;;;;5048790;28;20241;-79
2022/03/24 07:13:49;;;;;;;35.30;14.77;;;;;;;;;;5047801;28;20298;-79
2022/03/24 07:16:18;;;;;;;30.33;14.63;;;;;;;;;;5046389;28;20287;-79
2022/03/24 07:18:45;;;;;;;31.63;15.57;;;;;;;;;;5045307;28;20224;-78
2022/03/24 07:21:14;;;;;;;25.43;14.47;;;;;;;;;;5046132;28;20326;-77
2022/03/24 07:23:45;;;;;;;31.47;14.33;;;;;;;;;;5039416;28;20759;-78
2022/03/24 07:26:12;;;;;;;29.37;14.77;;;;;;;;;;5042060;28;20202;-81
2022/03/24 07:28:44;;;;;;;32.23;15.80;;;;;;;;;;5046025;28;20317;-80
2022/03/24 07:31:11;;;;;;;29.63;14.00;;;;;;;;;;5043088;28;20210;-82
2022/03/24 07:33:40;;;;;;;32.73;15.23;;;;;;;;;;5047905;28;20206;-80
2022/03/24 07:36:09;;;;;;;32.40;15.67;;;;;;;;;;5045714;28;20291;-81
2022/03/24 07:38:36;;;;;;;31.07;14.83;;;;;;;;;;5045988;28;20250;-79
2022/03/24 07:41:08;;;;;;;31.83;15.60;;;;;;;;;;5042553;28;20251;-78
2022/03/24 07:43:35;;;;;;;33.47;15.73;;;;;;;;;;5040589;28;20281;-80
2022/03/24 07:46:02;;;;;;;29.87;16.20;;;;;;;;;;5041823;28;20209;-77
2022/03/24 07:48:31;;;;;;;37.43;16.07;;;;;;;;;;5042632;28;20310;-80
2022/03/24 07:51:03;;;;;;;29.57;14.97;;;;;;;;;;5042600;28;21093;-79
2022/03/24 07:53:43;;;;;;;31.57;15.17;;;;;;;;;;5041524;28;20275;-80
2022/03/24 07:56:10;;;;;;;34.37;15.37;;;;;;;;;;5049517;28;20241;-79
2022/03/24 07:58:38;;;;;;;33.60;15.63;;;;;;;;;;5049846;28;20318;-79
2022/03/24 08:01:07;;;;;;;31.93;15.67;;;;;;;;;;5049181;28;20329;-80
2022/03/24 08:03:37;;;;;;;31.70;16.93;;;;;;;;;;5045838;28;20199;-79
2022/03/24 08:06:06;;;;;;;35.53;16.33;;;;;;;;;;5042420;28;20217;-79
2022/03/24 08:08:33;;;;;;;31.47;16.00;;;;;;;;;;5049839;28;20674;-80
2022/03/24 08:11:01;;;;;;;34.47;17.10;;;;;;;;;;5043681;28;20204;-80
2022/03/24 08:13:28;;;;;;;32.87;16.00;;;;;;;;;;5048261;28;20219;-80
2022/03/24 08:15:56;;;;;;;37.43;17.57;;;;;;;;;;5047081;28;20711;-79
2022/03/24 08:18:23;;;;;;;34.03;17.17;;;;;;;;;;5049503;28;20230;-79
2022/03/24 08:20:51;;;;;;;35.20;17.20;;;;;;;;;;5045854;28;20322;-79
2022/03/24 08:23:20;;;;;;;34.80;17.37;;;;;;;;;;5043575;28;20207;-80
2022/03/24 08:25:48;;;;;;;33.77;17.47;;;;;;;;;;5053233;28;20211;-80
2022/03/24 08:28:15;;;;;;;34.43;17.93;;;;;;;;;;5048867;28;20243;-80
2022/03/24 08:30:45;;;;;;;35.53;17.27;;;;;;;;;;5043689;28;20290;-81
2022/03/24 08:33:13;;;;;;;38.30;17.10;;;;;;;;;;5051183;28;20249;-79
2022/03/24 08:35:40;;;;;;;36.40;18.00;;;;;;;;;;5042331;28;20215;-80
2022/03/24 08:38:08;;;;;;;34.47;17.63;;;;;;;;;;5047410;28;20298;-80
2022/03/24 08:40:37;;;;;;;37.43;17.03;;;;;;;;;;5052080;28;20206;-78
2022/03/24 08:43:05;;;;;;;32.47;16.97;;;;;;;;;;5060945;28;20301;-78
2022/03/24 08:45:32;;;;;;;32.20;16.90;;;;;;;;;;5058143;28;20244;-78
2022/03/24 08:48:00;;;;;;;32.47;16.30;;;;;;;;;;5054708;28;20234;-79
2022/03/24 08:50:27;;;;;;;32.67;15.90;;;;;;;;;;5067079;28;20266;-80
2022/03/24 08:52:55;;;;;;;33.97;15.57;;;;;;;;;;5061649;28;20198;-81
2022/03/24 08:55:22;;;;;;;31.17;15.80;;;;;;;;;;5058831;28;20226;-79
2022/03/24 08:57:51;;;;;;;32.13;16.60;;;;;;;;;;5059639;28;20199;-79
2022/03/24 09:00:18;;;;;;;29.37;16.53;;;;;;;;;;5056897;28;20284;-80
2022/03/24 09:02:49;;;;;;;32.50;16.67;;;;;;;;;;5058222;28;20219;-80
2022/03/24 09:05:18;;;;;;;35.60;17.70;;;;;;;;;;5058420;28;20205;-80
2022/03/24 09:07:45;;;;;;;33.77;17.63;;;;;;;;;;5056612;28;20297;-80
2022/03/24 09:10:15;;;;;;;42.50;19.23;;;;;;;;;;5054601;28;20258;-80
2022/03/24 09:12:44;;;;;;;41.30;18.60;;;;;;;;;;5057915;28;20222;-80
2022/03/24 09:15:13;;;;;;;38.27;19.37;;;;;;;;;;5056233;28;20683;-79
2022/03/24 09:17:41;;;;;;;42.60;19.27;;;;;;;;;;5056998;28;20230;-79
2022/03/24 09:20:09;;;;;;;37.17;19.70;;;;;;;;;;5052979;28;20246;-79
2022/03/24 09:22:37;;;;;;;42.37;19.80;;;;;;;;;;5044295;28;20287;-79
2022/03/24 09:25:05;;;;;;;46.80;21.50;;;;;;;;;;5046648;28;20583;-78
2022/03/24 09:27:32;;;;;;;53.17;22.30;;;;;;;;;;5048406;28;20669;-79
2022/03/24 09:29:59;;;;;;;55.77;23.93;;;;;;;;;;5040726;28;20753;-78
2022/03/24 09:32:29;;;;;;;59.67;26.00;;;;;;;;;;5049656;28;20285;-78
2022/03/24 09:34:57;;;;;;;57.27;25.97;;;;;;;;;;5053285;28;20550;-78
2022/03/24 09:37:24;;;;;;;58.00;25.80;;;;;;;;;;5053578;28;20214;-77
2022/03/24 09:40:00;;;;;;;54.53;24.30;;;;;;;;;;5052790;28;20242;-77
2022/03/24 09:42:28;;;;;;;52.97;24.67;;;;;;;;;;5052209;28;20215;-78
2022/03/24 09:44:58;;;;;;;56.60;23.97;;;;;;;;;;5042423;28;20297;-78
2022/03/24 09:47:26;;;;;;;47.60;22.73;;;;;;;;;;5045625;28;20287;-80
2022/03/24 09:49:55;;;;;;;50.13;21.63;;;;;;;;;;5044916;28;20219;-80
2022/03/24 09:52:26;;;;;;;53.17;23.73;;;;;;;;;;5048899;28;20218;-79
2022/03/24 09:54:54;;;;;;;52.20;23.27;;;;;;;;;;5047860;28;20211;-78
2022/03/24 09:57:21;;;;;;;52.53;22.37;;;;;;;;;;5041748;28;20253;-80
2022/03/24 09:59:49;;;;;;;49.30;20.87;;;;;;;;;;5041608;28;20640;-80
2022/03/24 10:02:16;;;;;;;49.33;21.67;;;;;;;;;;5048232;28;20305;-80
2022/03/24 10:04:50;;;;;;;45.37;21.07;;;;;;;;;;5059421;28;20231;-80
2022/03/24 10:07:20;;;;;;;47.53;21.90;;;;;;;;;;5057602;28;20257;-80
2022/03/24 10:09:50;;;;;;;42.00;21.97;;;;;;;;;;5051048;28;20719;-78
2022/03/24 10:12:19;;;;;;;44.80;22.27;;;;;;;;;;5049608;28;20247;-79
2022/03/24 10:14:46;;;;;;;45.27;20.47;;;;;;;;;;5056048;28;21132;-80
2022/03/24 10:17:13;;;;;;;46.20;21.73;;;;;;;;;;5051051;28;20210;-78
2022/03/24 10:19:41;;;;;;;43.23;22.13;;;;;;;;;;5045782;28;20234;-78
2022/03/24 10:22:09;;;;;;;46.37;22.70;;;;;;;;;;5048823;28;20257;-79
2022/03/24 10:24:42;;;;;;;46.67;22.87;;;;;;;;;;5049677;28;20681;-79
2022/03/24 10:27:11;;;;;;;49.27;21.80;;;;;;;;;;5044247;28;20223;-78
2022/03/24 10:29:39;;;;;;;42.63;21.47;;;;;;;;;;5046747;28;20273;-79
2022/03/24 10:32:11;;;;;;;45.37;22.13;;;;;;;;;;5052093;28;20213;-79
2022/03/24 10:34:39;;;;;;;45.30;22.00;;;;;;;;;;5040446;28;20235;-78
2022/03/24 10:37:07;;;;;;;42.33;20.73;;;;;;;;;;5055486;28;20234;-77
2022/03/24 10:39:35;;;;;;;44.90;21.03;;;;;;;;;;5050534;28;20254;-78
2022/03/24 10:42:13;;;;;;;44.87;21.67;;;;;;;;;;5052424;28;20223;-78
2022/03/24 10:44:55;;;;;;;46.93;20.33;;;;;;;;;;5049855;28;20214;-78
2022/03/24 10:47:37;;;;;;;42.37;21.00;;;;;;;;;;5057375;28;20222;-79
2022/03/24 10:50:19;;;;;;;47.90;21.10;;;;;;;;;;5048050;28;20688;-78
2022/03/24 10:52:46;;;;;;;49.73;21.83;;;;;;;;;;5058772;28;20680;-78
2022/03/24 10:55:13;;;;;;;49.50;21.13;;;;;;;;;;5055398;28;20261;-78
2022/03/24 10:57:42;;;;;;;44.97;20.93;;;;;;;;;;5049148;28;20215;-78
2022/03/24 11:00:11;;;;;;;42.53;21.10;;;;;;;;;;5061702;28;20231;-79
2022/03/24 11:02:40;;;;;;;42.50;20.17;;;;;;;;;;5056280;28;20253;-78
2022/03/24 11:05:12;;;;;;;40.13;19.60;;;;;;;;;;5044289;28;20211;-78
2022/03/24 11:07:39;;;;;;;41.50;20.37;;;;;;;;;;5043393;28;20287;-79
2022/03/24 11:10:11;;;;;;;40.97;19.13;;;;;;;;;;5044941;28;20306;-79
2022/03/24 11:12:39;;;;;;;42.57;19.17;;;;;;;;;;5044461;28;20221;-79
2022/03/24 11:15:09;;;;;;;46.20;20.57;;;;;;;;;;5040608;28;20198;-79
2022/03/24 11:17:38;;;;;;;38.33;18.97;;;;;;;;;;5045289;28;20199;-79
2022/03/24 11:20:10;;;;;;;36.73;17.77;;;;;;;;;;5047556;28;20314;-79
2022/03/24 11:22:43;;;;;;;37.20;18.63;;;;;;;;;;5040790;28;20222;-80
2022/03/24 11:25:12;;;;;;;36.70;18.10;;;;;;;;;;5049418;28;20262;-78
2022/03/24 11:27:40;;;;;;;38.67;17.90;;;;;;;;;;5047739;28;20249;-79
2022/03/24 11:30:10;;;;;;;42.13;18.47;;;;;;;;;;5043496;28;20233;-79
2022/03/24 11:32:38;;;;;;;36.27;18.70;;;;;;;;;;5047635;28;20214;-78
2022/03/24 11:35:06;;;;;;;37.93;18.80;;;;;;;;;;5049716;28;20286;-79
2022/03/24 11:37:34;;;;;;;37.43;16.47;;;;;;;;;;5046102;28;20199;-78
2022/03/24 11:40:10;;;;;;;39.50;17.20;;;;;;;;;;5044252;28;20716;-78
2022/03/24 11:42:39;;;;;;;37.87;16.83;;;;;;;;;;5046487;28;20290;-78
2022/03/24 11:45:15;;;;;;;34.40;16.73;;;;;;;;;;5043655;28;20734;-78
2022/03/24 11:47:52;;;;;;;37.13;17.07;;;;;;;;;;5049026;28;20206;-78
2022/03/24 11:50:19;;;;;;;38.67;18.40;;;;;;;;;;5047506;28;20237;-78
2022/03/24 11:52:48;;;;;;;43.53;19.37;;;;;;;;;;5061922;28;20229;-78
2022/03/24 11:55:16;;;;;;;46.37;19.97;;;;;;;;;;5062853;28;20263;-78
2022/03/24 11:57:43;;;;;;;38.63;18.43;;;;;;;;;;5059445;28;20701;-78
2022/03/24 12:00:29;;;;;;;42.03;19.17;;;;;;;;;;5055728;28;20682;-78
2022/03/24 12:03:00;;;;;;;38.77;18.63;;;;;;;;;;5055516;28;20235;-77
2022/03/24 12:05:42;;;;;;;40.33;18.93;;;;;;;;;;5050371;28;20221;-78
2022/03/24 12:08:10;;;;;;;36.83;19.10;;;;;;;;;;5041928;28;20644;-79
2022/03/24 12:10:38;;;;;;;44.47;18.63;;;;;;;;;;5045864;28;20623;-79
2022/03/24 12:13:21;;;;;;;39.83;19.50;;;;;;;;;;5042598;28;20261;-78
2022/03/24 12:16:03;;;;;;;38.43;18.63;;;;;;;;;;5044028;28;20217;-78
2022/03/24 12:18:42;;;;;;;40.40;18.83;;;;;;;;;;5042690;28;20227;-77
2022/03/24 12:21:09;;;;;;;37.17;18.90;;;;;;;;;;5046156;28;20217;-78
2022/03/24 12:23:51;;;;;;;45.73;20.60;;;;;;;;;;5041206;28;21026;-78
2022/03/24 12:26:18;;;;;;;38.10;18.20;;;;;;;;;;5047151;28;20200;-78
2022/03/24 12:28:45;;;;;;;39.87;19.20;;;;;;;;;;5042388;28;20231;-79
2022/03/24 12:31:13;;;;;;;33.20;17.53;;;;;;;;;;5047951;28;20291;-79
2022/03/24 12:33:47;;;;;;;40.80;18.80;;;;;;;;;;5044538;28;20215;-79
2022/03/24 12:36:15;;;;;;;39.50;18.47;;;;;;;;;;5044723;28;20321;-79
2022/03/24 12:38:51;;;;;;;37.00;19.50;;;;;;;;;;5049081;28;20226;-79
2022/03/24 12:41:25;;;;;;;36.97;18.77;;;;;;;;;;5044833;28;20266;-79
2022/03/24 12:43:56;;;;;;;38.13;19.10;;;;;;;;;;5048413;28;20307;-79
2022/03/24 12:46:25;;;;;;;39.13;19.30;;;;;;;;;;5048496;28;20234;-78
2022/03/24 12:48:55;;;;;;;38.80;19.37;;;;;;;;;;5041425;28;20227;-78
2022/03/24 12:51:24;;;;;;;38.47;18.23;;;;;;;;;;5046292;28;20262;-77
2022/03/24 12:53:52;;;;;;;38.97;19.20;;;;;;;;;;5048128;28;20204;-78
2022/03/24 12:56:23;;;;;;;41.10;18.93;;;;;;;;;;5046418;28;20222;-78
2022/03/24 12:58:55;;;;;;;39.17;18.07;;;;;;;;;;5047386;28;20250;-78
2022/03/24 13:01:22;;;;;;;43.47;19.00;;;;;;;;;;5048130;28;20207;-79
2022/03/24 13:04:01;;;;;;;35.43;17.23;;;;;;;;;;5054103;28;20245;-78
2022/03/24 13:06:31;;;;;;;39.50;18.63;;;;;;;;;;5053182;28;20269;-78
2022/03/24 13:09:17;;;;;;;38.97;18.47;;;;;;;;;;5044676;28;20235;-79
2022/03/24 13:12:05;;;;;;;39.83;18.50;;;;;;;;;;5049918;28;20201;-79
2022/03/24 13:14:33;;;;;;;35.63;18.03;;;;;;;;;;5044996;28;20202;-78
2022/03/24 13:17:01;;;;;;;42.27;19.57;;;;;;;;;;5050284;28;20195;-78
2022/03/24 13:19:30;;;;;;;37.60;19.40;;;;;;;;;;5042569;28;20236;-78
2022/03/24 13:22:12;;;;;;;39.80;19.13;;;;;;;;;;5049147;28;20238;-79
2022/03/24 13:24:40;;;;;;;37.53;17.83;;;;;;;;;;5046744;28;20214;-78
2022/03/24 13:27:08;;;;;;;32.73;16.43;;;;;;;;;;5047035;28;20263;-79
2022/03/24 13:29:38;;;;;;;36.50;16.87;;;;;;;;;;5044814;28;20691;-78
2022/03/24 13:32:11;;;;;;;33.27;16.07;;;;;;;;;;5042949;28;20298;-78
2022/03/24 13:34:40;;;;;;;33.50;16.10;;;;;;;;;;5049915;28;20216;-78
2022/03/24 13:37:17;;;;;;;36.10;15.77;;;;;;;;;;5049221;28;20234;-78
2022/03/24 13:39:49;;;;;;;29.83;15.23;;;;;;;;;;5041754;28;20215;-78
2022/03/24 13:42:16;;;;;;;39.47;16.37;;;;;;;;;;5050699;28;20760;-78
2022/03/24 13:44:45;;;;;;;32.13;15.70;;;;;;;;;;5048911;28;20233;-79
2022/03/24 13:47:12;;;;;;;34.70;16.33;;;;;;;;;;5045693;28;20222;-79
2022/03/24 13:49:41;;;;;;;33.57;16.63;;;;;;;;;;5046025;28;20227;-79
2022/03/24 13:52:09;;;;;;;35.70;16.17;;;;;;;;;;5043877;28;20245;-78
2022/03/24 13:54:37;;;;;;;34.73;15.70;;;;;;;;;;5050741;28;20205;-79
2022/03/24 13:57:20;;;;;;;35.03;15.27;;;;;;;;;;5043981;28;20291;-79
2022/03/24 13:59:53;;;;;;;31.57;15.27;;;;;;;;;;5037672;28;20265;-79
2022/03/24 14:02:24;;;;;;;33.00;15.17;;;;;;;;;;5038299;28;20572;-78
2022/03/24 14:05:09;;;;;;;32.83;16.23;;;;;;;;;;5040616;28;20233;-78
2022/03/24 14:07:55;;;;;;;37.27;15.40;;;;;;;;;;5040031;28;20234;-78
2022/03/24 14:10:42;;;;;;;37.17;15.13;;;;;;;;;;5040502;28;20774;-78
2022/03/24 14:13:13;;;;;;;29.80;14.67;;;;;;;;;;5040441;28;20197;-79
2022/03/24 14:15:43;;;;;;;29.27;14.80;;;;;;;;;;5038153;28;20218;-78
2022/03/24 14:18:13;;;;;;;29.83;15.10;;;;;;;;;;5041292;28;20285;-78
2022/03/24 14:20:45;;;;;;;30.67;15.30;;;;;;;;;;5045386;28;20212;-79
2022/03/24 14:23:25;;;;;;;27.77;14.47;;;;;;;;;;5047352;28;20230;-79
2022/03/24 14:25:52;;;;;;;29.77;14.80;;;;;;;;;;5044586;28;20294;-78
2022/03/24 14:28:36;;;;;;;30.60;14.47;;;;;;;;;;5039476;28;20711;-79